Time;durP1;ratioP1;P1;durP2;ratioP2;P2;SDS_P1;SDS_P2;PMS_P1;PMS_P2;Temp;Humidity;BMP_temperature;BMP_pressure;BME280_temperature;BME280_humidity;BME280_pressure;Samples;Min_cycle;Max_cycle;Signal;HPM_P1;HPM_P2
2022/12/27 00:00:44;;;;;;;;;;;;;;;5.19;100.00;99739.41;5075718;28;19998;-43
2022/12/27 00:03:10;;;;;;;;;;;;;;;5.49;100.00;99749.66;5074747;28;19955;-43
2022/12/27 00:05:35;;;;;;;;;;;;;;;5.86;100.00;99753.91;5073231;28;19966;-43
2022/12/27 00:08:00;;;;;;;;;;;;;;;5.97;100.00;99763.31;5074208;28;20395;-43
2022/12/27 00:10:25;;;;;;;;;;;;;;;5.82;100.00;99770.09;5070385;28;20296;-44
2022/12/27 00:12:52;;;;;;;;;;;;;;;5.69;100.00;99750.50;5073349;28;19927;-43
2022/12/27 00:15:17;;;;;;;;;;;;;;;5.80;100.00;99759.03;5074731;28;19959;-44
2022/12/27 00:17:42;;;;;;;;;;;;;;;5.68;100.00;99753.94;5076249;28;19951;-44
2022/12/27 00:20:08;;;;;;;;;;;;;;;5.51;100.00;99753.06;5072986;28;19980;-43
2022/12/27 00:22:33;;;;;;;;;;;;;;;5.61;100.00;99764.97;5073470;28;19927;-43
2022/12/27 00:24:58;;;;;;;;;;;;;;;5.57;100.00;99765.84;5070793;28;19916;-43
2022/12/27 00:27:23;;;;;;;;;;;;;;;5.52;100.00;99765.84;5074513;28;20377;-43
2022/12/27 00:29:49;;;;;;;;;;;;;;;5.45;100.00;99759.00;5072513;28;20018;-43
2022/12/27 00:32:14;;;;;;;;;;;;;;;5.39;100.00;99769.25;5074206;28;19920;-43
2022/12/27 00:34:39;;;;;;;;;;;;;;;5.45;100.00;99775.22;5072723;28;19931;-43
2022/12/27 00:37:04;;;;;;;;;;;;;;;5.41;100.00;99773.50;5070244;28;19916;-44
2022/12/27 00:39:29;;;;;;;;;;;;;;;5.50;100.00;99784.59;5073054;28;19998;-43
2022/12/27 00:41:55;;;;;;;;;;;;;;;5.35;100.00;99790.50;5076799;28;19966;-43
2022/12/27 00:44:20;;;;;;;;;;;;;;;5.28;100.00;99789.63;5074270;28;20377;-44
2022/12/27 00:46:45;;;;;;;;;;;;;;;5.34;100.00;99799.88;5071451;28;20348;-43
2022/12/27 00:49:10;;;;;;;;;;;;;;;5.33;100.00;99790.50;5074066;28;20257;-43
2022/12/27 00:51:36;;;;;;;;;;;;;;;4.91;100.00;99787.00;5071892;28;20305;-43
2022/12/27 00:54:01;;;;;;;;;;;;;;;5.62;100.00;99810.13;5073789;28;19924;-43
2022/12/27 00:56:27;;;;;;;;;;;;;;;5.31;100.00;99804.13;5073851;28;19919;-43
2022/12/27 00:58:53;;;;;;;;;;;;;;;5.44;100.00;99806.69;5073913;28;19912;-43
2022/12/27 01:01:19;;;;;;;;;;;;;;;5.50;100.00;99815.25;5071685;28;20399;-43
2022/12/27 01:03:44;;;;;;;;;;;;;;;5.15;100.00;99818.53;5071154;28;19931;-43
2022/12/27 01:06:11;;;;;;;;;;;;;;;4.99;100.00;99815.94;5072459;28;19931;-43
2022/12/27 01:08:36;;;;;;;;;;;;;;;5.29;100.00;99822.00;5071092;28;19977;-43
2022/12/27 01:11:01;;;;;;;;;;;;;;;5.44;100.00;99827.13;5072782;28;19912;-43
2022/12/27 01:13:27;;;;;;;;;;;;;;;5.59;100.00;99820.38;5074412;28;20559;-43
2022/12/27 01:15:52;;;;;;;;;;;;;;;5.47;100.00;99815.22;5071871;28;19963;-44
2022/12/27 01:18:17;;;;;;;;;;;;;;;5.20;100.00;99817.72;5074200;28;19924;-43
2022/12/27 01:20:42;;;;;;;;;;;;;;;5.24;100.00;99819.44;5071918;28;19917;-43
2022/12/27 01:23:07;;;;;;;;;;;;;;;5.59;100.00;99830.59;5074171;28;20777;-43
2022/12/27 01:25:33;;;;;;;;;;;;;;;5.49;100.00;99834.81;5071877;28;20288;-43
2022/12/27 01:27:58;;;;;;;;;;;;;;;5.14;100.00;99842.38;5072340;28;20472;-43
2022/12/27 01:30:23;;;;;;;;;;;;;;;5.31;100.00;99834.75;5071336;28;19916;-43
2022/12/27 01:32:48;;;;;;;;;;;;;;;5.17;100.00;99860.25;5073461;28;19944;-43
2022/12/27 01:35:14;;;;;;;;;;;;;;;4.97;100.00;99850.84;5073256;28;19913;-43
2022/12/27 01:37:39;;;;;;;;;;;;;;;5.39;100.00;99859.47;5071931;28;20380;-43
2022/12/27 01:40:05;;;;;;;;;;;;;;;5.35;100.00;99862.88;5074199;28;19919;-43
2022/12/27 01:45:15;;;;;;;;;;;;;;;5.66;100.00;99888.50;5070261;28;19938;-43
2022/12/27 01:47:40;;;;;;;;;;;;;;;5.35;100.00;99878.19;5062180;28;19975;-43
2022/12/27 01:50:09;;;;;;;;;;;;;;;5.37;100.00;99885.88;5071689;28;21008;-43
2022/12/27 01:52:38;;;;;;;;;;;;;;;5.43;100.00;99896.13;5070049;28;19916;-43
2022/12/27 01:55:07;;;;;;;;;;;;;;;5.52;100.00;99906.38;5073713;28;20874;-43
2022/12/27 01:57:33;;;;;;;;;;;;;;;5.49;100.00;99914.00;5070816;28;20002;-43
2022/12/27 01:59:58;;;;;;;;;;;;;;;5.45;100.00;99914.81;5070648;28;20448;-43
2022/12/27 02:02:23;;;;;;;;;;;;;;;5.47;100.00;99927.63;5073769;28;19919;-43
2022/12/27 02:04:49;;;;;;;;;;;;;;;5.48;100.00;99944.66;5069682;28;20031;-43
2022/12/27 02:07:14;;;;;;;;;;;;;;;5.33;100.00;99943.75;5073387;28;19962;-43
2022/12/27 02:09:49;;;;;;;;;;;;;;;5.28;100.00;99947.97;5068182;28;20023;-43
2022/12/27 02:12:15;;;;;;;;;;;;;;;5.42;100.00;99961.66;5068160;28;19946;-43
2022/12/27 02:14:47;;;;;;;;;;;;;;;5.20;100.00;99958.16;5068284;28;19916;-43
2022/12/27 02:17:13;;;;;;;;;;;;;;;5.52;100.00;99984.69;5072406;28;19924;-43
2022/12/27 02:19:41;;;;;;;;;;;;;;;5.42;100.00;99982.09;5072006;28;20413;-43
2022/12/27 02:22:06;;;;;;;;;;;;;;;5.39;100.00;99971.88;5072119;28;19920;-43
2022/12/27 02:24:40;;;;;;;;;;;;;;;5.56;100.00;99983.84;5071904;28;19950;-43
2022/12/27 02:27:07;;;;;;;;;;;;;;;5.55;100.00;99987.28;5069731;28;19924;-43
2022/12/27 02:29:38;;;;;;;;;;;;;;;5.30;100.00;99982.03;5069921;28;19924;-43
2022/12/27 02:32:06;;;;;;;;;;;;;;;5.23;100.00;99995.63;5071451;28;20332;-43
2022/12/27 02:34:44;;;;;;;;;;;;;;;5.70;100.00;100012.03;5071133;28;19927;-43
2022/12/27 02:37:09;;;;;;;;;;;;;;;5.50;100.00;100014.50;5072493;28;19927;-43
2022/12/27 02:39:35;;;;;;;;;;;;;;;5.57;100.00;100018.81;5070440;28;19920;-43
2022/12/27 02:53:25;;;;;;;;;;;;;;;5.48;100.00;100054.53;5071286;28;20284;-43
2022/12/27 02:58:34;;;;;;;;;;;;;;;5.65;100.00;100065.66;5069687;28;19928;-43
2022/12/27 03:03:54;;;;;;;;;;;;;;;5.70;100.00;100063.13;5069674;28;19924;-43
2022/12/27 03:06:39;;;;;;;;;;;;;;;5.59;100.00;100060.56;5069560;28;19924;-44
2022/12/27 03:09:07;;;;;;;;;;;;;;;5.76;100.00;100071.69;5067634;28;20570;-43
2022/12/27 03:17:22;;;;;;;;;;;;;;;5.94;100.00;100082.84;5070642;28;19967;-43
2022/12/27 03:25:29;;;;;;;;;;;;;;;5.68;100.00;100096.38;5073767;28;19932;-43
2022/12/27 03:33:27;;;;;;;;;;;;;;;5.34;100.00;100106.38;5073798;28;19931;-43
2022/12/27 03:38:54;;;;;;;;;;;;;;;5.77;100.00;100121.97;5067531;28;20005;-43
2022/12/27 03:44:23;;;;;;;;;;;;;;;5.68;100.00;100121.06;5073534;28;19986;-43
2022/12/27 03:46:48;;;;;;;;;;;;;;;5.89;100.00;100128.00;5072776;28;19961;-43
2022/12/27 03:49:13;;;;;;;;;;;;;;;5.42;100.00;100103.88;5075766;28;20478;-43
2022/12/27 03:52:00;;;;;;;;;;;;;;;5.61;100.00;100127.81;5075132;28;19920;-43
2022/12/27 03:54:26;;;;;;;;;;;;;;;5.84;100.00;100138.22;5074102;28;20104;-43
2022/12/27 03:56:55;;;;;;;;;;;;;;;5.78;100.00;100133.91;5076164;28;19925;-43
2022/12/27 03:59:20;;;;;;;;;;;;;;;5.39;100.00;100130.25;5071800;28;20293;-43
2022/12/27 04:01:46;;;;;;;;;;;;;;;5.47;100.00;100139.66;5073601;28;19921;-43
2022/12/27 04:04:11;;;;;;;;;;;;;;;5.65;100.00;100142.34;5073609;28;20384;-43
2022/12/27 04:06:36;;;;;;;;;;;;;;;5.35;100.00;100137.88;5073687;28;20440;-43
2022/12/27 04:36:21;;;;;;;;;;;;;;;5.61;100.00;100189.16;5074267;28;19923;-43
2022/12/27 04:38:46;;;;;;;;;;;;;;;5.35;100.00;100174.50;5070737;28;19920;-43
2022/12/27 04:55:04;;;;;;;;;;;;;;;5.17;100.00;100156.47;5074652;28;19927;-43
2022/12/27 04:57:29;;;;;;;;;;;;;;;5.47;100.00;100175.44;5073851;28;19938;-43
2022/12/27 05:02:38;;;;;;;;;;;;;;;5.62;100.00;100208.78;5072506;28;19935;-43
2022/12/27 05:05:04;;;;;;;;;;;;;;;5.74;100.00;100213.97;5070850;28;19916;-43
2022/12/27 05:15:41;;;;;;;;;;;;;;;5.85;100.00;100217.44;5073389;28;19939;-43
2022/12/27 05:18:06;;;;;;;;;;;;;;;5.92;100.00;100202.16;5072613;28;19916;-43
2022/12/27 05:20:35;;;;;;;;;;;;;;;5.98;100.00;100207.34;5073082;28;20396;-43
2022/12/27 05:25:44;;;;;;;;;;;;;;;5.89;100.00;100207.25;5074052;28;19966;-43
2022/12/27 05:28:10;;;;;;;;;;;;;;;5.73;100.00;100217.38;5073357;28;19963;-43
2022/12/27 05:30:35;;;;;;;;;;;;;;;5.73;100.00;100219.94;5074627;28;19920;-43
2022/12/27 05:33:01;;;;;;;;;;;;;;;5.96;100.00;100239.72;5073697;28;19924;-43
2022/12/27 05:35:26;;;;;;;;;;;;;;;5.86;100.00;100233.63;5074171;28;19943;-43
2022/12/27 05:37:52;;;;;;;;;;;;;;;5.66;100.00;100223.28;5073409;28;19920;-43
2022/12/27 05:40:18;;;;;;;;;;;;;;;5.64;100.00;100235.19;5070099;28;19928;-43
2022/12/27 05:42:43;;;;;;;;;;;;;;;5.64;100.00;100232.63;5072002;28;19930;-43
2022/12/27 05:45:08;;;;;;;;;;;;;;;5.96;100.00;100255.06;5072790;28;19920;-43
2022/12/27 05:47:33;;;;;;;;;;;;;;;6.06;100.00;100261.94;5069923;28;19924;-43
2022/12/27 05:49:59;;;;;;;;;;;;;;;5.89;100.00;100243.06;5069844;28;19920;-43
2022/12/27 05:52:24;;;;;;;;;;;;;;;5.67;100.00;100237.75;5071758;28;19924;-43
2022/12/27 05:54:49;;;;;;;;;;;;;;;5.78;100.00;100248.94;5070271;28;19920;-43
2022/12/27 05:57:14;;;;;;;;;;;;;;;5.70;100.00;100250.56;5074665;28;19969;-43
2022/12/27 05:59:40;;;;;;;;;;;;;;;5.42;100.00;100232.44;5071339;28;19949;-43
2022/12/27 06:02:05;;;;;;;;;;;;;;;6.23;100.00;100262.91;5073509;28;19925;-43
2022/12/27 06:04:30;;;;;;;;;;;;;;;5.97;100.00;100249.94;5072027;28;19920;-43
2022/12/27 06:06:55;;;;;;;;;;;;;;;5.96;100.00;100249.94;5071616;28;20724;-43
2022/12/27 06:09:20;;;;;;;;;;;;;;;5.62;100.00;100244.53;5070421;28;20368;-43
2022/12/27 06:11:46;;;;;;;;;;;;;;;5.74;100.00;100265.06;5069475;28;19920;-43
2022/12/27 06:14:11;;;;;;;;;;;;;;;5.84;100.00;100266.88;5071391;28;19912;-43
2022/12/27 06:16:36;;;;;;;;;;;;;;;5.45;100.00;100259.72;5069650;28;20019;-43
2022/12/27 06:19:01;;;;;;;;;;;;;;;5.96;100.00;100280.63;5071025;28;19967;-43
2022/12/27 06:21:27;;;;;;;;;;;;;;;5.90;100.00;100285.66;5068817;28;20926;-43
2022/12/27 06:23:52;;;;;;;;;;;;;;;5.78;100.00;100291.53;5070814;28;20979;-43
2022/12/27 06:26:21;;;;;;;;;;;;;;;5.68;100.00;100308.50;5071132;28;19924;-43
2022/12/27 06:28:48;;;;;;;;;;;;;;;5.64;99.80;100304.19;5070630;28;19936;-43
2022/12/27 06:31:13;;;;;;;;;;;;;;;5.83;95.31;100315.44;5071148;28;19917;-43
2022/12/27 06:33:38;;;;;;;;;;;;;;;5.56;96.08;100328.81;5071522;28;20301;-43
2022/12/27 06:36:04;;;;;;;;;;;;;;;5.52;91.61;100334.72;5073431;28;20040;-43
2022/12/27 06:38:30;;;;;;;;;;;;;;;6.09;88.05;100374.50;5069272;28;19921;-43
2022/12/27 06:40:59;;;;;;;;;;;;;;;5.59;91.34;100359.53;5070140;28;20645;-43
2022/12/27 06:43:24;;;;;;;;;;;;;;;5.44;90.36;100360.22;5071708;28;19920;-43
2022/12/27 06:45:56;;;;;;;;;;;;;;;6.19;86.22;100401.84;5073123;28;21069;-43
2022/12/27 06:48:21;;;;;;;;;;;;;;;5.56;92.00;100373.09;5070934;28;19924;-43
2022/12/27 06:50:46;;;;;;;;;;;;;;;6.06;87.58;100411.13;5072212;28;20011;-43
2022/12/27 06:53:12;;;;;;;;;;;;;;;5.91;89.27;100399.84;5073950;28;19939;-43
2022/12/27 06:55:37;;;;;;;;;;;;;;;5.81;89.68;100389.53;5070733;28;19927;-43
2022/12/27 06:58:02;;;;;;;;;;;;;;;5.80;87.25;100408.28;5071463;28;19974;-43
2022/12/27 07:00:27;;;;;;;;;;;;;;;6.22;85.79;100435.13;5071238;28;20047;-43
2022/12/27 07:02:52;;;;;;;;;;;;;;;5.75;89.31;100406.53;5072049;28;19924;-43
2022/12/27 07:05:18;;;;;;;;;;;;;;;5.79;90.42;100416.81;5071650;28;19923;-43
2022/12/27 07:07:43;;;;;;;;;;;;;;;6.38;89.66;100425.88;5072029;28;19920;-43
2022/12/27 07:10:08;;;;;;;;;;;;;;;5.72;95.73;100398.81;5067474;28;20566;-43
2022/12/27 07:12:33;;;;;;;;;;;;;;;5.92;93.90;100406.69;5068763;28;19999;-43
2022/12/27 07:14:59;;;;;;;;;;;;;;;5.90;94.99;100386.22;5071618;28;19964;-43
2022/12/27 07:17:24;;;;;;;;;;;;;;;5.98;94.13;100388.91;5069465;28;19959;-43
2022/12/27 07:19:49;;;;;;;;;;;;;;;5.56;98.82;100370.53;5070443;28;19970;-43
2022/12/27 07:22:14;;;;;;;;;;;;;;;5.96;95.08;100391.44;5070900;28;19969;-43
2022/12/27 07:24:40;;;;;;;;;;;;;;;5.87;95.40;100389.59;5070306;28;19916;-43
2022/12/27 07:27:05;;;;;;;;;;;;;;;5.82;95.94;100387.88;5071043;28;19928;-43
2022/12/27 07:29:30;;;;;;;;;;;;;;;6.44;95.63;100409.72;5068658;28;19916;-43
2022/12/27 07:31:55;;;;;;;;;;;;;;;6.74;97.13;100395.44;5067862;28;20427;-43
2022/12/27 07:34:21;;;;;;;;;;;;;;;6.51;100.00;100378.22;5068266;28;19912;-43
2022/12/27 07:36:46;;;;;;;;;;;;;;;6.21;100.00;100361.81;5068749;28;19973;-43
2022/12/27 07:39:11;;;;;;;;;;;;;;;6.27;100.00;100366.09;5065673;28;20019;-43
2022/12/27 07:41:36;;;;;;;;;;;;;;;6.49;100.00;100360.28;5068794;28;20193;-43
2022/12/27 07:44:02;;;;;;;;;;;;;;;6.39;100.00;100355.13;5071998;28;19916;-43
2022/12/27 07:46:27;;;;;;;;;;;;;;;5.83;100.00;100341.84;5069957;28;20046;-43
2022/12/27 07:48:54;;;;;;;;;;;;;;;5.77;100.00;100346.91;5069094;28;19931;-43
2022/12/27 07:51:19;;;;;;;;;;;;;;;6.34;100.00;100380.66;5071383;28;19927;-43
2022/12/27 07:53:46;;;;;;;;;;;;;;;5.95;100.00;100350.50;5069925;28;19916;-43
2022/12/27 07:56:16;;;;;;;;;;;;;;;5.76;100.00;100350.31;5069970;28;19924;-43
2022/12/27 07:58:42;;;;;;;;;;;;;;;5.72;100.00;100361.34;5070317;28;19916;-43
2022/12/27 08:01:08;;;;;;;;;;;;;;;6.16;100.00;100383.94;5072379;28;20657;-43
2022/12/27 08:03:33;;;;;;;;;;;;;;;6.15;100.00;100374.53;5068589;28;19922;-43
2022/12/27 08:05:58;;;;;;;;;;;;;;;6.22;100.00;100368.63;5069286;28;19923;-43
2022/12/27 08:08:24;;;;;;;;;;;;;;;6.36;100.00;100365.31;5071334;28;19920;-43
2022/12/27 08:10:49;;;;;;;;;;;;;;;6.34;100.00;100354.19;5071959;28;20014;-43
2022/12/27 08:13:14;;;;;;;;;;;;;;;6.10;100.00;100344.66;5071503;28;19920;-43
2022/12/27 08:15:40;;;;;;;;;;;;;;;6.45;100.00;100355.13;5074389;28;20023;-43
2022/12/27 08:18:05;;;;;;;;;;;;;;;5.74;100.00;100331.53;5071437;28;20118;-43
2022/12/27 08:20:30;;;;;;;;;;;;;;;5.82;100.00;100345.25;5073661;28;20020;-43
2022/12/27 08:22:56;;;;;;;;;;;;;;;5.76;100.00;100355.41;5074273;28;20301;-43
2022/12/27 08:25:21;;;;;;;;;;;;;;;5.55;100.00;100350.09;5072891;28;20240;-43
2022/12/27 08:27:46;;;;;;;;;;;;;;;5.92;100.00;100378.56;5072714;28;19935;-43
2022/12/27 08:30:12;;;;;;;;;;;;;;;5.71;100.00;100381.78;5072840;28;19950;-43
2022/12/27 08:32:37;;;;;;;;;;;;;;;6.20;100.00;100401.03;5072994;28;19964;-43
2022/12/27 08:35:02;;;;;;;;;;;;;;;5.85;100.00;100386.19;5072538;28;20357;-43
2022/12/27 08:37:28;;;;;;;;;;;;;;;6.27;100.00;100384.00;5070183;28;19931;-43
2022/12/27 08:39:53;;;;;;;;;;;;;;;5.98;100.00;100371.00;5072512;28;20022;-43
2022/12/27 08:42:18;;;;;;;;;;;;;;;6.02;100.00;100378.72;5070845;28;19990;-43
2022/12/27 08:44:43;;;;;;;;;;;;;;;5.93;100.00;100373.47;5072483;28;20054;-43
2022/12/27 08:47:09;;;;;;;;;;;;;;;6.66;100.00;100403.91;5074129;28;20497;-43
2022/12/27 08:49:34;;;;;;;;;;;;;;;6.04;100.00;100377.03;5073848;28;20343;-43
2022/12/27 08:51:59;;;;;;;;;;;;;;;6.65;100.00;100389.38;5076025;28;19927;-43
2022/12/27 08:54:24;;;;;;;;;;;;;;;6.47;100.00;100389.28;5072170;28;19959;-43
2022/12/27 08:56:49;;;;;;;;;;;;;;;6.37;100.00;100369.59;5074413;28;20451;-43
2022/12/27 08:59:15;;;;;;;;;;;;;;;6.46;100.00;100378.19;5071230;28;20293;-43
2022/12/27 09:01:40;;;;;;;;;;;;;;;5.94;100.00;100364.09;5072488;28;20301;-43
2022/12/27 09:04:05;;;;;;;;;;;;;;;5.93;100.00;100375.16;5072031;28;20015;-43
2022/12/27 09:06:31;;;;;;;;;;;;;;;6.51;100.00;100414.03;5071745;28;19912;-43
2022/12/27 09:08:56;;;;;;;;;;;;;;;6.53;100.00;100412.34;5071351;28;21672;-43
2022/12/27 09:11:22;;;;;;;;;;;;;;;6.66;100.00;100403.03;5072742;28;19984;-44
2022/12/27 09:13:47;;;;;;;;;;;;;;;6.24;100.00;100384.84;5072648;28;19920;-43
2022/12/27 09:16:14;;;;;;;;;;;;;;;6.26;100.00;100393.38;5070897;28;19916;-43
2022/12/27 09:18:39;;;;;;;;;;;;;;;6.87;100.00;100417.69;5071167;28;19963;-43
2022/12/27 09:21:06;;;;;;;;;;;;;;;6.34;100.00;100392.59;5069663;28;19970;-43
2022/12/27 09:23:31;;;;;;;;;;;;;;;6.48;100.00;100388.44;5073674;28;19925;-43
2022/12/27 09:25:56;;;;;;;;;;;;;;;6.71;100.00;100391.16;5072556;28;20463;-43
2022/12/27 09:28:22;;;;;;;;;;;;;;;6.46;100.00;100377.34;5070064;28;19931;-43
2022/12/27 09:30:47;;;;;;;;;;;;;;;6.26;100.00;100370.34;5070802;28;19931;-43
2022/12/27 09:33:12;;;;;;;;;;;;;;;6.33;100.00;100384.06;5071364;28;19924;-43
2022/12/27 09:35:38;;;;;;;;;;;;;;;6.57;100.00;100392.75;5069367;28;19917;-43
2022/12/27 09:38:03;;;;;;;;;;;;;;;6.14;100.00;100383.06;5071484;28;19917;-43
2022/12/27 09:40:28;;;;;;;;;;;;;;;6.62;100.00;100406.44;5069495;28;19916;-43
2022/12/27 09:43:03;;;;;;;;;;;;;;;6.41;100.00;100409.69;5070676;28;19920;-43
2022/12/27 09:45:48;;;;;;;;;;;;;;;6.51;100.00;100423.44;5065999;28;19956;-43
2022/12/27 09:48:43;;;;;;;;;;;;;;;6.39;100.00;100411.41;5070757;27;20475;-43
2022/12/27 09:51:12;;;;;;;;;;;;;;;7.17;100.00;100431.53;5052968;28;20015;-45
2022/12/27 09:53:38;;;;;;;;;;;;;;;6.91;100.00;100427.09;5061852;28;20019;-43
2022/12/27 09:56:03;;;;;;;;;;;;;;;6.43;100.00;100395.22;5070751;28;20054;-43
2022/12/27 09:58:50;;;;;;;;;;;;;;;6.22;100.00;100391.63;5068751;28;19980;-43
2022/12/27 10:01:18;;;;;;;;;;;;;;;6.85;100.00;100430.50;5071889;28;19920;-43
2022/12/27 10:03:44;;;;;;;;;;;;;;;6.55;100.00;100400.44;5070883;28;19920;-43
2022/12/27 10:06:24;;;;;;;;;;;;;;;6.77;100.00;100400.56;5069661;28;20838;-43
2022/12/27 10:08:56;;;;;;;;;;;;;;;6.65;100.00;100391.94;5071485;28;19965;-43
2022/12/27 10:11:37;;;;;;;;;;;;;;;6.59;100.00;100391.94;5070319;28;19920;-43
2022/12/27 10:14:14;;;;;;;;;;;;;;;7.07;100.00;100410.97;5070908;28;19924;-43
2022/12/27 10:16:53;;;;;;;;;;;;;;;6.50;100.00;100381.63;5069610;28;20404;-43
2022/12/27 10:19:27;;;;;;;;;;;;;;;6.91;100.00;100389.56;5068836;28;20762;-43
2022/12/27 10:21:57;;;;;;;;;;;;;;;6.78;100.00;100386.91;5068923;28;20372;-43
2022/12/27 10:24:23;;;;;;;;;;;;;;;7.16;100.00;100394.81;5072589;28;20551;-43
2022/12/27 10:26:49;;;;;;;;;;;;;;;7.11;100.00;100376.81;5071255;28;21145;-43
2022/12/27 10:29:19;;;;;;;;;;;;;;;6.62;100.00;100356.09;5069164;28;19916;-43
2022/12/27 10:31:45;;;;;;;;;;;;;;;7.00;100.00;100364.81;5068818;28;20439;-42
2022/12/27 10:34:11;;;;;;;;;;;;;;;7.49;100.00;100378.66;5069839;28;19924;-42
2022/12/27 10:36:37;;;;;;;;;;;;;;;7.57;100.00;100362.44;5071480;28;19920;-43
2022/12/27 10:39:02;;;;;;;;;;;;;;;7.26;100.00;100354.69;5071531;28;19927;-42
2022/12/27 10:41:31;;;;;;;;;;;;;;;7.11;100.00;100337.53;5068575;28;19952;-42
2022/12/27 10:43:56;;;;;;;;;;;;;;;7.55;100.00;100347.09;5070096;28;20018;-43
2022/12/27 10:46:23;;;;;;;;;;;;;;;7.83;100.00;100342.84;5068460;28;20440;-43
2022/12/27 10:49:01;;;;;;;;;;;;;;;8.20;100.00;100321.47;5069909;28;21357;-43
2022/12/27 10:51:27;;;;;;;;;;;;;;;7.69;100.00;100301.81;5066169;28;20301;-42
2022/12/27 10:54:09;;;;;;;;;;;;;;;7.28;100.00;100291.50;5061990;28;19916;-43
2022/12/27 10:56:36;;;;;;;;;;;;;;;7.99;100.00;100296.69;5069168;28;19916;-42
2022/12/27 10:59:15;;;;;;;;;;;;;;;7.92;100.00;100286.41;5068141;28;19972;-43
2022/12/27 11:01:41;;;;;;;;;;;;;;;7.78;100.00;100277.00;5068775;28;19988;-43
2022/12/27 11:04:09;;;;;;;;;;;;;;;7.49;100.00;100282.97;5065982;28;20365;-42
2022/12/27 11:06:34;;;;;;;;;;;;;;;8.00;100.00;100298.38;5069806;28;19928;-42
2022/12/27 11:09:00;;;;;;;;;;;;;;;8.07;100.00;100279.56;5068424;28;20185;-42
2022/12/27 11:11:28;;;;;;;;;;;;;;;8.17;100.00;100281.25;5067160;28;19970;-43
2022/12/27 11:13:53;;;;;;;;;;;;;;;7.62;100.00;100259.06;5066993;28;19931;-42
2022/12/27 11:16:22;;;;;;;;;;;;;;;7.22;100.00;100263.28;5066712;28;19924;-43
2022/12/27 11:18:51;;;;;;;;;;;;;;;7.45;100.00;100273.56;5064598;28;19913;-42
2022/12/27 11:21:16;;;;;;;;;;;;;;;8.03;100.00;100282.97;5068835;28;19921;-42
2022/12/27 11:23:48;;;;;;;;;;;;;;;7.57;100.00;100278.69;5066557;28;19923;-43
2022/12/27 11:26:17;;;;;;;;;;;;;;;7.48;100.00;100269.31;5065599;28;19920;-42
2022/12/27 11:28:53;;;;;;;;;;;;;;;8.26;100.00;100281.25;5066849;28;20655;-43
2022/12/27 11:31:51;;;;;;;;;;;;;;;7.67;100.00;100251.38;5067452;28;20397;-42
2022/12/27 11:34:22;;;;;;;;;;;;;;;8.42;100.00;100263.28;5035831;28;19920;-42
2022/12/27 11:36:48;;;;;;;;;;;;;;;7.91;100.00;100248.81;5068819;28;20339;-42
2022/12/27 11:39:33;;;;;;;;;;;;;;;8.05;100.00;100250.47;5067937;28;20820;-42
2022/12/27 11:41:58;;;;;;;;;;;;;;;8.41;100.00;100248.72;5072260;28;19920;-43
2022/12/27 11:44:27;;;;;;;;;;;;;;;7.91;100.00;100237.66;5071660;28;19964;-43
2022/12/27 11:46:57;;;;;;;;;;;;;;;8.06;100.00;100223.97;5071104;28;20316;-43
2022/12/27 11:49:23;;;;;;;;;;;;;;;7.62;100.00;100214.59;5071170;28;19963;-43
2022/12/27 11:51:52;;;;;;;;;;;;;;;7.91;100.00;100227.41;5067965;28;19924;-43
2022/12/27 11:54:23;;;;;;;;;;;;;;;8.37;100.00;100230.75;5072455;28;19916;-43
2022/12/27 11:56:52;;;;;;;;;;;;;;;8.41;100.00;100223.91;5069483;28;19947;-43
2022/12/27 11:59:32;;;;;;;;;;;;;;;8.76;100.00;100223.75;5072657;28;19989;-43
2022/12/27 12:02:15;;;;;;;;;;;;;;;8.32;100.00;100199.06;5073029;28;19923;-43
2022/12/27 12:04:59;;;;;;;;;;;;;;;8.43;100.00;100198.22;5071088;28;20057;-43
2022/12/27 12:07:24;;;;;;;;;;;;;;;7.62;100.00;100176.16;5071517;28;19934;-43
2022/12/27 12:09:50;;;;;;;;;;;;;;;8.02;100.00;100178.66;5071629;28;19920;-43
2022/12/27 12:12:34;;;;;;;;;;;;;;;8.52;100.00;100196.47;5074459;28;19920;-43
2022/12/27 12:15:11;;;;;;;;;;;;;;;8.54;100.00;100173.38;5072968;28;19973;-43
2022/12/27 12:17:44;;;;;;;;;;;;;;;8.14;100.00;100152.94;5072877;28;19920;-43
2022/12/27 12:20:28;;;;;;;;;;;;;;;8.02;100.00;100153.00;5069656;28;20026;-42
2022/12/27 12:23:06;;;;;;;;;;;;;;;8.46;100.00;100167.41;5072859;28;19920;-42
2022/12/27 12:26:03;;;;;;;;;;;;;;;8.24;100.00;100154.63;5069638;28;20308;-43
2022/12/27 12:28:32;;;;;;;;;;;;;;;8.09;100.00;100159.81;5050322;28;20300;-43
2022/12/27 12:30:57;;;;;;;;;;;;;;;8.69;100.00;100167.28;5069519;28;19960;-45
2022/12/27 12:33:41;;;;;;;;;;;;;;;8.86;100.00;100160.34;5072763;28;19963;-44
2022/12/27 12:36:20;;;;;;;;;;;;;;;8.56;100.00;100140.84;5072546;28;19920;-44
2022/12/27 12:38:54;;;;;;;;;;;;;;;8.72;100.00;100137.31;5070721;28;19923;-44
2022/12/27 12:41:22;;;;;;;;;;;;;;;8.78;100.00;100139.84;5072215;28;19930;-44
2022/12/27 12:44:06;;;;;;;;;;;;;;;8.47;100.00;100113.50;5072522;28;19931;-44
2022/12/27 12:46:36;;;;;;;;;;;;;;;8.18;100.00;100109.31;5075408;28;19931;-44
2022/12/27 12:49:15;;;;;;;;;;;;;;;8.62;100.00;100115.13;5072368;28;19928;-44
2022/12/27 12:51:40;;;;;;;;;;;;;;;8.80;100.00;100114.13;5068105;28;19950;-42
2022/12/27 12:54:05;;;;;;;;;;;;;;;8.48;100.00;100101.50;5072885;28;19916;-42
2022/12/27 12:56:45;;;;;;;;;;;;;;;8.61;100.00;100108.28;5071820;28;19920;-44
2022/12/27 12:59:19;;;;;;;;;;;;;;;8.16;100.00;100099.91;5070787;28;19941;-44
2022/12/27 13:01:45;;;;;;;;;;;;;;;8.92;100.00;100110.66;5074057;28;19946;-44
2022/12/27 13:04:19;;;;;;;;;;;;;;;8.50;100.00;100097.22;5074999;28;19919;-44
2022/12/27 13:06:55;;;;;;;;;;;;;;;8.68;100.00;100104.81;5071748;28;20009;-44
2022/12/27 13:09:34;;;;;;;;;;;;;;;8.72;100.00;100085.09;5070729;28;19919;-44
2022/12/27 13:11:59;;;;;;;;;;;;;;;8.88;100.00;100086.69;5074442;28;20037;-44
2022/12/27 13:14:27;;;;;;;;;;;;;;;8.47;100.00;100074.16;5070701;28;20002;-44
2022/12/27 13:17:01;;;;;;;;;;;;;;;8.74;100.00;100083.38;5072900;28;20284;-44
2022/12/27 13:19:36;;;;;;;;;;;;;;;9.10;100.00;100091.63;5070596;28;19916;-44
2022/12/27 13:22:11;;;;;;;;;;;;;;;8.62;100.00;100074.06;5068317;28;19961;-44
2022/12/27 13:24:41;;;;;;;;;;;;;;;8.40;100.00;100067.31;5071481;28;19916;-44
2022/12/27 13:27:18;;;;;;;;;;;;;;;8.56;100.00;100071.50;5068454;28;19931;-44
2022/12/27 13:30:04;;;;;;;;;;;;;;;8.85;100.00;100065.28;5071415;28;19927;-44
2022/12/27 13:32:48;;;;;;;;;;;;;;;8.91;100.00;100058.41;5070584;28;20543;-44
2022/12/27 13:35:13;;;;;;;;;;;;;;;8.65;100.00;100053.47;5071463;28;19920;-43
2022/12/27 13:37:44;;;;;;;;;;;;;;;8.55;100.00;100056.97;5069948;28;19917;-44
2022/12/27 13:40:16;;;;;;;;;;;;;;;8.54;100.00;100047.56;5069719;28;21213;-44
2022/12/27 13:42:59;;;;;;;;;;;;;;;8.49;100.00;100049.31;5070232;28;19927;-43
2022/12/27 13:45:29;;;;;;;;;;;;;;;8.81;100.00;100049.06;5067881;28;19917;-43
2022/12/27 13:47:54;;;;;;;;;;;;;;;8.82;100.00;100042.22;5070785;28;20461;-44
2022/12/27 13:50:22;;;;;;;;;;;;;;;8.88;100.00;100047.31;5071553;28;19917;-44
2022/12/27 13:52:47;;;;;;;;;;;;;;;8.90;100.00;100037.88;5069335;28;19971;-43
2022/12/27 13:55:21;;;;;;;;;;;;;;;9.25;100.00;100050.38;5072214;28;20357;-44
2022/12/27 13:57:47;;;;;;;;;;;;;;;8.99;100.00;100032.66;5067452;28;19947;-43
2022/12/27 14:00:13;;;;;;;;;;;;;;;9.00;100.00;100031.78;5064219;28;20878;-43
2022/12/27 14:02:57;;;;;;;;;;;;;;;9.27;100.00;100034.97;5071199;28;19959;-43
2022/12/27 14:05:28;;;;;;;;;;;;;;;9.50;100.00;100020.13;5069316;28;21021;-43
2022/12/27 14:07:53;;;;;;;;;;;;;;;9.75;100.00;100009.56;5069852;28;19934;-43
2022/12/27 14:10:37;;;;;;;;;;;;;;;9.69;100.00;100000.19;5070566;28;19920;-43
2022/12/27 14:13:06;;;;;;;;;;;;;;;9.16;100.00;99992.22;5072672;28;20373;-43
2022/12/27 14:15:37;;;;;;;;;;;;;;;9.25;100.00;99995.56;5072297;28;19916;-43
2022/12/27 14:18:08;;;;;;;;;;;;;;;9.50;100.00;99999.56;5069716;28;20471;-43
2022/12/27 14:20:52;;;;;;;;;;;;;;;9.73;100.00;99999.28;5072841;28;19920;-43
2022/12/27 14:23:21;;;;;;;;;;;;;;;9.00;100.00;99990.69;5071876;28;20011;-43